createdAt,value
2023-03-29T00:01:12.970Z,98588.69
2023-03-29T00:06:36.178Z,98567.25
2023-03-29T00:11:39.439Z,98554.41
2023-03-29T00:16:44.640Z,98565.38
2023-03-29T00:21:47.386Z,98538.91
2023-03-29T00:26:49.984Z,98556.72
2023-03-29T00:31:54.338Z,98549.00
2023-03-29T00:36:58.142Z,98541.34
2023-03-29T00:42:00.808Z,98539.63
2023-03-29T00:47:03.613Z,98532.75
2023-03-29T00:52:07.420Z,98538.84
2023-03-29T00:57:11.845Z,98532.84
2023-03-29T01:02:22.281Z,98512.38
2023-03-29T01:07:48.192Z,98521.81
2023-03-29T01:12:56.464Z,98520.97
2023-03-29T01:18:02.024Z,98507.31
2023-03-29T01:23:17.579Z,98508.16
2023-03-29T01:28:33.538Z,98511.59
2023-03-29T01:33:45.405Z,98489.31
2023-03-29T01:38:52.963Z,98491.06
2023-03-29T01:44:04.753Z,98480.78
2023-03-29T01:49:28.716Z,98481.69
2023-03-29T01:54:39.931Z,98480.72
2023-03-29T01:59:46.045Z,98472.19
2023-03-29T02:04:52.525Z,98458.50
2023-03-29T02:09:55.732Z,98465.34
2023-03-29T02:14:59.812Z,98456.00
2023-03-29T02:20:20.677Z,98453.47
2023-03-29T02:25:24.626Z,98462.00
2023-03-29T02:30:34.888Z,98446.53
2023-03-29T02:35:46.302Z,98443.06
2023-03-29T02:40:49.244Z,98426.78
2023-03-29T02:45:53.149Z,98426.69
2023-03-29T02:51:01.567Z,98429.31
2023-03-29T02:56:04.904Z,98412.22
2023-03-29T03:01:09.766Z,98413.88
2023-03-29T03:06:13.635Z,98395.19
2023-03-29T03:11:17.105Z,98404.44
2023-03-29T03:16:19.709Z,98408.69
2023-03-29T03:21:23.246Z,98395.84
2023-03-29T03:26:30.013Z,98394.13
2023-03-29T03:31:33.721Z,98387.25
2023-03-29T03:36:48.901Z,98382.84
2023-03-29T03:41:51.493Z,98391.31
2023-03-29T03:46:54.839Z,98394.66
2023-03-29T03:51:57.433Z,98393.69
2023-03-29T03:57:00.198Z,98380.75
2023-03-29T04:02:11.432Z,98390.03
2023-03-29T04:07:17.941Z,98375.34
2023-03-29T04:12:46.956Z,98377.00
2023-03-29T04:17:49.723Z,98369.13
2023-03-29T04:23:06.953Z,98362.94
2023-03-29T04:28:12.865Z,98359.31
2023-03-29T04:33:29.485Z,98364.94
2023-03-29T04:38:38.481Z,98354.72
2023-03-29T04:43:41.725Z,98353.97
2023-03-29T04:48:57.515Z,98352.16
2023-03-29T04:54:10.909Z,98347.84
2023-03-29T04:59:33.208Z,98341.56
2023-03-29T05:04:38.622Z,98350.69
2023-03-29T05:09:48.202Z,98345.47
2023-03-29T05:14:51.299Z,98344.56
2023-03-29T05:19:55.105Z,98352.16
2023-03-29T05:25:00.710Z,98327.59
2023-03-29T05:30:04.044Z,98354.19
2023-03-29T05:35:29.439Z,98346.53
2023-03-29T05:40:34.158Z,98348.00
2023-03-29T05:45:55.754Z,98352.72
2023-03-29T05:50:59.435Z,98358.41
2023-03-29T05:56:02.446Z,98345.31
2023-03-29T06:01:12.686Z,98344.00
2023-03-29T06:06:36.290Z,98328.66
2023-03-29T06:11:39.359Z,98346.28
2023-03-29T06:16:45.180Z,98341.84
2023-03-29T06:21:49.428Z,98329.84
2023-03-29T06:26:58.175Z,98346.00
2023-03-29T06:32:00.859Z,98319.47
2023-03-29T06:37:32.719Z,98305.22
2023-03-29T06:42:46.687Z,98329.16
2023-03-29T06:48:08.197Z,98324.94
2023-03-29T06:53:11.643Z,98329.31
2023-03-29T06:58:15.763Z,98330.25
2023-03-29T07:03:23.637Z,98350.91
2023-03-29T07:08:35.288Z,98337.53
2023-03-29T07:13:44.040Z,98334.69
2023-03-29T07:18:51.400Z,98342.28
2023-03-29T07:24:13.109Z,98341.47
2023-03-29T07:29:16.993Z,98342.78
2023-03-29T07:34:20.003Z,98353.25
2023-03-29T07:39:22.858Z,98359.34
2023-03-29T07:44:45.906Z,98368.19
2023-03-29T07:49:49.001Z,98349.47
2023-03-29T07:54:52.310Z,98353.47
2023-03-29T08:00:16.689Z,98351.56
2023-03-29T08:05:40.734Z,98356.06
2023-03-29T08:10:50.474Z,98357.22
2023-03-29T08:16:03.550Z,98350.16
2023-03-29T08:21:11.861Z,98355.09
2023-03-29T08:26:16.062Z,98343.19
2023-03-29T08:31:19.433Z,98335.75
2023-03-29T08:36:22.550Z,98344.69
2023-03-29T08:41:58.421Z,98342.16
2023-03-29T08:47:28.734Z,98325.78
2023-03-29T08:52:38.118Z,98333.94
2023-03-29T08:58:08.318Z,98327.22
2023-03-29T09:03:24.417Z,98320.66
2023-03-29T09:08:30.595Z,98308.44
2023-03-29T09:13:39.352Z,98305.13
2023-03-29T09:18:59.875Z,98310.25
2023-03-29T09:24:10.251Z,98293.25
2023-03-29T09:30:17.262Z,98322.94
2023-03-29T09:35:38.988Z,98323.25
2023-03-29T09:40:45.257Z,98302.63
2023-03-29T09:46:00.827Z,98312.94
2023-03-29T09:51:07.683Z,98303.78
2023-03-29T09:56:15.944Z,98294.66
2023-03-29T10:01:24.012Z,98311.00
2023-03-29T10:06:27.069Z,98297.47
2023-03-29T10:11:38.669Z,98298.31
2023-03-29T10:16:46.217Z,98302.47
2023-03-29T10:21:56.018Z,98308.31
2023-03-29T10:27:02.379Z,98279.66
2023-03-29T10:32:15.622Z,98290.41
2023-03-29T10:37:19.958Z,98307.13
2023-03-29T10:42:24.536Z,98289.22
2023-03-29T10:47:34.454Z,98267.09
2023-03-29T10:52:39.982Z,98286.72
2023-03-29T10:58:13.573Z,98290.09
2023-03-29T11:03:43.817Z,98292.66
2023-03-29T11:09:02.286Z,98292.56
2023-03-29T11:14:26.115Z,98292.50
2023-03-29T11:19:47.435Z,98296.81
2023-03-29T11:24:52.831Z,98302.63
2023-03-29T11:29:58.742Z,98295.78
2023-03-29T11:35:19.209Z,98302.00
2023-03-29T11:40:36.269Z,98304.72
2023-03-29T11:45:51.476Z,98289.44
2023-03-29T11:51:06.800Z,98300.28
2023-03-29T11:56:15.850Z,98294.50
2023-03-29T12:01:33.529Z,98307.03
2023-03-29T12:07:15.823Z,98298.34
2023-03-29T12:12:30.425Z,98291.25
2023-03-29T12:18:10.352Z,98307.72
2023-03-29T12:23:15.500Z,98283.28
2023-03-29T12:28:18.134Z,98317.47
2023-03-29T12:33:21.682Z,98320.97
2023-03-29T12:38:31.253Z,98313.41
2023-03-29T12:43:52.852Z,98293.16
2023-03-29T12:49:31.865Z,98307.41
2023-03-29T12:54:34.465Z,98302.13
2023-03-29T12:59:39.971Z,98312.94
2023-03-29T13:04:57.586Z,98321.31
2023-03-29T13:10:08.942Z,98313.31
2023-03-29T13:15:14.466Z,98329.69
2023-03-29T13:20:17.469Z,98323.31
2023-03-29T13:25:50.981Z,98327.09
2023-03-29T13:31:23.007Z,98331.69
2023-03-29T13:36:43.985Z,98344.66
2023-03-29T13:41:51.834Z,98348.13
2023-03-29T13:47:05.000Z,98346.41
2023-03-29T13:52:21.449Z,98358.53
2023-03-29T13:57:32.334Z,98351.22
2023-03-29T14:02:48.096Z,98375.06
2023-03-29T14:07:54.368Z,98381.25
2023-03-29T14:12:57.725Z,98385.59
2023-03-29T14:18:01.531Z,98379.59
2023-03-29T14:23:13.836Z,98393.28
2023-03-29T14:28:26.435Z,98382.22
2023-03-29T14:33:33.551Z,98394.19
2023-03-29T14:38:37.410Z,98405.28
2023-03-29T14:43:40.934Z,98412.94
2023-03-29T14:48:44.087Z,98412.97
2023-03-29T14:53:48.714Z,98418.97
2023-03-29T14:58:55.568Z,98424.25
2023-03-29T15:04:11.107Z,98427.56
2023-03-29T15:09:27.898Z,98430.91
2023-03-29T15:14:34.040Z,98436.84
2023-03-29T15:19:37.006Z,98441.13
2023-03-29T15:24:47.790Z,98424.91
2023-03-29T15:30:01.417Z,98445.56
2023-03-29T15:35:09.476Z,98454.00
2023-03-29T15:40:21.507Z,98455.63
2023-03-29T15:45:23.947Z,98465.97
2023-03-29T15:50:26.730Z,98473.09
2023-03-29T15:55:32.154Z,98477.19
2023-03-29T16:00:36.040Z,98490.00
2023-03-29T16:05:38.726Z,98480.53
2023-03-29T16:10:43.924Z,98477.25
2023-03-29T16:15:47.065Z,98491.69
2023-03-29T16:20:49.820Z,98492.50
2023-03-29T16:25:52.442Z,98480.84
2023-03-29T16:30:55.084Z,98496.13
2023-03-29T16:35:57.783Z,98508.06
2023-03-29T16:41:00.908Z,98512.25
2023-03-29T16:46:04.090Z,98501.94
2023-03-29T16:51:07.436Z,98505.34
2023-03-29T16:56:10.975Z,98520.75
2023-03-29T17:01:19.405Z,98507.00
2023-03-29T17:06:22.157Z,98524.16
2023-03-29T17:11:26.285Z,98517.44
2023-03-29T17:16:29.357Z,98518.13
2023-03-29T17:21:32.223Z,98525.91
2023-03-29T17:26:34.818Z,98531.94
2023-03-29T17:31:41.106Z,98539.63
2023-03-29T17:36:45.816Z,98526.88
2023-03-29T17:41:48.512Z,98525.91
2023-03-29T17:46:51.508Z,98536.22
2023-03-29T17:51:54.114Z,98521.59
2023-03-29T17:56:56.830Z,98537.72
2023-03-29T18:02:02.660Z,98535.97
2023-03-29T18:07:05.327Z,98549.69
2023-03-29T18:12:09.203Z,98555.81
2023-03-29T18:17:11.873Z,98561.03
2023-03-29T18:22:14.801Z,98566.31
2023-03-29T18:27:17.860Z,98560.34
2023-03-29T18:32:21.612Z,98574.81
2023-03-29T18:37:24.360Z,98574.81
2023-03-29T18:42:27.459Z,98580.03
2023-03-29T18:47:30.234Z,98583.44
2023-03-29T18:52:33.375Z,98575.50
2023-03-29T18:57:36.179Z,98575.66
2023-03-29T19:02:40.476Z,98573.22
2023-03-29T19:07:43.258Z,98560.63
2023-03-29T19:12:45.975Z,98584.34
2023-03-29T19:17:48.680Z,98586.72
2023-03-29T19:22:52.220Z,98568.13
2023-03-29T19:27:55.111Z,98569.00
2023-03-29T19:32:57.947Z,98558.69
2023-03-29T19:38:01.008Z,98602.00
2023-03-29T19:43:04.545Z,98586.66
2023-03-29T19:48:07.408Z,98596.00
2023-03-29T19:53:11.181Z,98586.72
2023-03-29T19:58:13.790Z,98578.28
2023-03-29T20:03:17.441Z,98602.91
2023-03-29T20:08:20.389Z,98607.19
2023-03-29T20:13:35.363Z,98608.78
2023-03-29T20:18:41.060Z,98601.34
2023-03-29T20:23:44.265Z,98612.28
2023-03-29T20:28:46.979Z,98606.41
2023-03-29T20:33:49.850Z,98601.28
2023-03-29T20:38:55.310Z,98606.25
2023-03-29T20:43:58.636Z,98601.97
2023-03-29T20:49:06.110Z,98603.63
2023-03-29T20:54:10.043Z,98592.59
2023-03-29T20:59:12.744Z,98607.69
2023-03-29T21:04:15.512Z,98610.22
2023-03-29T21:09:24.181Z,98616.50
2023-03-29T21:14:26.910Z,98622.44
2023-03-29T21:19:29.859Z,98624.28
2023-03-29T21:24:33.229Z,98634.63
2023-03-29T21:29:35.896Z,98643.19
2023-03-29T21:34:38.581Z,98650.09
2023-03-29T21:39:41.453Z,98638.19
2023-03-29T21:44:44.502Z,98625.38
2023-03-29T21:49:47.400Z,98639.88
2023-03-29T21:54:50.067Z,98637.28
2023-03-29T21:59:52.693Z,98627.22
2023-03-29T22:04:55.763Z,98628.19
2023-03-29T22:09:58.758Z,98633.97
2023-03-29T22:15:01.942Z,98638.22
2023-03-29T22:20:14.642Z,98639.19
2023-03-29T22:25:18.742Z,98622.06
2023-03-29T22:30:22.957Z,98646.81
2023-03-29T22:35:25.783Z,98644.31
2023-03-29T22:40:28.365Z,98648.50
2023-03-29T22:45:30.961Z,98648.59
2023-03-29T22:50:33.501Z,98639.09
2023-03-29T22:55:36.831Z,98633.16
2023-03-29T23:00:39.398Z,98630.53
2023-03-29T23:05:42.023Z,98631.34
2023-03-29T23:10:47.121Z,98634.75
2023-03-29T23:15:50.663Z,98627.88
2023-03-29T23:20:55.707Z,98623.44
2023-03-29T23:25:58.345Z,98621.78
2023-03-29T23:31:04.297Z,98630.31
2023-03-29T23:36:15.561Z,98644.19
2023-03-29T23:41:20.249Z,98642.53
2023-03-29T23:46:22.893Z,98642.59
2023-03-29T23:51:28.442Z,98645.31
2023-03-29T23:56:31.368Z,98631.69
